This is the latest recevied weather packets stored in our database for station/object KC4ANB. If no packets are shown the sender has not sent any weather packets the latest 10 day(s).
| Time | Temp. | Humidity | Pressure | Rain* | Wind** | Luminosity | Snow |
|---|---|---|---|---|---|---|---|
| 1777504357 | 24.44° C | 87% | 1009.5 hPa | 0 mm | - | - | - |
| 1777503137 | 24.44° C | 86% | 1010.2 hPa | 0 mm | - | - | - |
| 1777500137 | 25° C | 82% | 1010 hPa | 0 mm | - | - | - |
| 1777498937 | 25° C | 80% | 1010.1 hPa | 0 mm | - | - | - |
| 1777495937 | 25° C | 82% | 1010.9 hPa | 0 mm | - | - | - |
| 1777494765 | 25° C | 81% | 1011.2 hPa | 0 mm | - | - | - |
| 1777493557 | 25° C | 82% | 1011.2 hPa | 0 mm | - | - | - |
| 1777487536 | 23.89° C | 88% | 1012.7 hPa | 0 mm | - | - | - |
| 1777482736 | 21.67° C | 92% | 1013.3 hPa | 0 mm | - | - | - |
| 1777478556 | 21.67° C | 91% | 1013.8 hPa | 0 mm | - | - | - |
| 1777477336 | 21.67° C | 91% | 1013.6 hPa | 0 mm | - | - | - |
| 1777476784 | 21.67° C | 91% | 1013.7 hPa | 0 mm | - | - | - |
| 1777471956 | 20° C | 99% | 1013.9 hPa | 0 mm | - | - | - |
| 1777468944 | 18.33° C | 100% | 1014.2 hPa | 0 mm | - | - | - |
| 1777467735 | 17.22° C | 100% | 1014.1 hPa | 0 mm | - | - | - |
| 1777464738 | 17.22° C | 99% | 1013.5 hPa | 4.57 mm | - | - | - |
| 1777463537 | 17.22° C | 99% | 1014.5 hPa | 4.83 mm | - | - | - |
| 1777462337 | 17.22° C | 99% | 1014.6 hPa | 1.52 mm | - | - | - |
| 1777458737 | 17.22° C | 99% | 1013.1 hPa | 3.05 mm | - | - | - |
| 1777455138 | 16.67° C | 99% | 1014.9 hPa | 1.52 mm | - | - | - |
| 1777454537 | 16.67° C | 99% | 1014.7 hPa | 0.76 mm | - | - | - |
| 1777453937 | 16.67° C | 99% | 1013.9 hPa | 1.02 mm | - | - | - |
| 1777451537 | 17.22° C | 99% | 1013.3 hPa | 3.56 mm | - | - | - |
| 1777448538 | 17.22° C | 99% | 1014.7 hPa | 7.87 mm | - | - | - |
| 1777445557 | 17.22° C | 99% | 1015.1 hPa | 10.92 mm | - | - | - |
* Rain latest hour (hover to see other rain measurements)
** Current wind speed in m/s (hover to see current wind gust speed)